アナディリ の空港の天気 - METARとTAF

アナディリ・ウゴルヌイ空港 ( UHMA / DYR ) - ロシア アナディリ
飛行場実況気象(Metar)
観測時間12/15 23:00 MAGT (12/15 12:00 UTC)
風向・風速北北西 5m/s
視程6000m
天気現象散在した霧
なし
気温-36℃
湿度74%
気圧1013hPa
METARUHMA 151200Z 34005MPS 6000 2400N BCFG NSC M36/M39 Q1013 R01/////// NOSIG RMK END R01/34005MPS QFE756/1008
過去の天気等 Google飛行場航空写真 Wunderground天気予報

過去48時間のMETAR

飛行場予報(TAF)
発表時間: 12/15 21:50 MAGT (12/15 10:50 UTC)
予報対象時間: 15日23時 MAGT ~ 16日23時 MAGT
風向・風速北 6m/s
視程5000m
天気現象もや
全天の4割程度の雲 雲底高度 1070m
15日23時 MAGT ~ 16日23時 MAGT に一時的に
風向・風速北西 3m/s
視程1000m
天気現象もや
全天の4割程度の雲 雲底高度 150m
全天の8割程度の雲 雲底高度 610m
TAF UHMA 151050Z 1512/1612 36006MPS 5000 BR SCT035
TEMPO 1512/1612 32003MPS 1000 BR SCT005 BKN020